createdAt,value
2017-10-16T00:00:58.436Z,101471.25
2017-10-16T00:03:25.841Z,101466.44
2017-10-16T00:05:53.230Z,101473.43
2017-10-16T00:08:20.684Z,101469.95
2017-10-16T00:10:48.078Z,101476.16
2017-10-16T00:13:15.485Z,101473.98
2017-10-16T00:15:42.880Z,101476.94
2017-10-16T00:18:10.270Z,101473.88
2017-10-16T00:20:37.665Z,101469.04
2017-10-16T00:23:05.143Z,101468.52
2017-10-16T00:25:32.540Z,101466.41
2017-10-16T00:27:59.947Z,101470.38
2017-10-16T00:30:27.338Z,101471.97
2017-10-16T00:32:54.764Z,101466.02
2017-10-16T00:35:22.160Z,101467.41
2017-10-16T00:37:49.676Z,101464.28
2017-10-16T00:40:17.072Z,101469.16
2017-10-16T00:42:44.457Z,101472.74
2017-10-16T00:45:11.859Z,101467.92
2017-10-16T00:47:39.258Z,101470.64
2017-10-16T00:50:06.653Z,101467.49
2017-10-16T00:52:34.042Z,101467.02
2017-10-16T00:55:01.446Z,101469.36
2017-10-16T00:57:28.847Z,101471.23
2017-10-16T00:59:56.247Z,101464.07
2017-10-16T01:02:23.730Z,101458.88
2017-10-16T01:04:51.122Z,101456.64
2017-10-16T01:07:18.520Z,101452.89
2017-10-16T01:09:45.919Z,101450.02
2017-10-16T01:12:13.354Z,101454.49
2017-10-16T01:14:40.755Z,101455.89
2017-10-16T01:17:08.166Z,101455.80
2017-10-16T01:19:35.566Z,101456.42
2017-10-16T01:22:02.959Z,101454.71
2017-10-16T01:24:30.358Z,101456.81
2017-10-16T01:26:57.758Z,101456.16
2017-10-16T01:29:25.186Z,101461.70
2017-10-16T01:31:52.583Z,101458.30
2017-10-16T01:34:19.990Z,101455.95
2017-10-16T01:36:47.390Z,101452.95
2017-10-16T01:39:14.871Z,101449.52
2017-10-16T01:41:42.275Z,101444.48
2017-10-16T01:44:09.774Z,101446.05
2017-10-16T01:46:37.171Z,101444.77
2017-10-16T01:49:04.565Z,101445.19
2017-10-16T01:51:31.968Z,101445.12
2017-10-16T01:53:59.399Z,101447.58
2017-10-16T01:56:26.850Z,101442.36
2017-10-16T01:58:54.249Z,101447.59
2017-10-16T02:01:21.667Z,101449.41
2017-10-16T02:03:49.050Z,101448.33
2017-10-16T02:06:16.445Z,101455.19
2017-10-16T02:08:43.849Z,101445.28
2017-10-16T02:11:11.266Z,101448.03
2017-10-16T02:13:38.670Z,101451.98
2017-10-16T02:16:06.071Z,101444.66
2017-10-16T02:18:33.464Z,101441.02
2017-10-16T02:21:00.915Z,101441.61
2017-10-16T02:23:28.304Z,101447.68
2017-10-16T02:25:55.707Z,101441.56
2017-10-16T02:28:23.099Z,101442.62
2017-10-16T02:30:50.520Z,101445.11
2017-10-16T02:33:17.911Z,101446.71
2017-10-16T02:35:45.297Z,101444.84
2017-10-16T02:38:12.696Z,101451.05
2017-10-16T02:43:06.768Z,101444.22
2017-10-16T02:45:34.165Z,101446.76
2017-10-16T02:48:01.558Z,101437.20
2017-10-16T02:50:28.946Z,101447.93
2017-10-16T02:52:56.360Z,101436.00
2017-10-16T02:55:23.748Z,101438.81
2017-10-16T02:57:51.142Z,101438.38
2017-10-16T03:00:18.538Z,101439.20
2017-10-16T03:02:45.937Z,101434.76
2017-10-16T03:05:13.335Z,101430.13
2017-10-16T03:07:40.743Z,101432.09
2017-10-16T03:10:08.140Z,101435.78
2017-10-16T03:12:35.543Z,101433.56
2017-10-16T03:15:02.936Z,101435.81
2017-10-16T03:17:36.985Z,101429.73
2017-10-16T03:20:04.376Z,101422.30
2017-10-16T03:22:31.843Z,101431.77
2017-10-16T03:24:59.237Z,101432.31
2017-10-16T03:27:26.635Z,101429.05
2017-10-16T03:29:54.035Z,101426.26
2017-10-16T03:32:21.431Z,101422.36
2017-10-16T03:34:48.829Z,101425.20
2017-10-16T03:37:16.214Z,101422.90
2017-10-16T03:39:43.747Z,101423.70
2017-10-16T03:42:11.134Z,101428.94
2017-10-16T03:44:38.539Z,101426.66
2017-10-16T03:47:05.926Z,101427.27
2017-10-16T03:49:33.332Z,101431.47
2017-10-16T03:52:00.806Z,101431.80
2017-10-16T03:54:28.215Z,101427.61
2017-10-16T03:56:55.723Z,101429.74
2017-10-16T03:59:23.126Z,101433.00
2017-10-16T04:01:50.627Z,101434.44
2017-10-16T04:04:18.022Z,101433.98
2017-10-16T04:06:45.410Z,101438.66
2017-10-16T04:09:12.814Z,101437.20
2017-10-16T04:11:40.207Z,101440.56
2017-10-16T04:14:07.601Z,101440.42
2017-10-16T04:16:35.004Z,101439.75
2017-10-16T04:19:02.420Z,101444.74
2017-10-16T04:21:29.828Z,101447.90
2017-10-16T04:23:57.231Z,101440.30
2017-10-16T04:26:24.620Z,101437.94
2017-10-16T04:28:52.006Z,101433.73
2017-10-16T04:31:19.415Z,101425.75
2017-10-16T04:33:46.840Z,101424.98
2017-10-16T04:36:14.217Z,101434.68
2017-10-16T04:38:41.606Z,101434.11
2017-10-16T04:41:09.025Z,101432.66
2017-10-16T04:43:36.423Z,101434.64
2017-10-16T04:46:03.822Z,101439.75
2017-10-16T04:48:31.223Z,101442.11
2017-10-16T04:50:58.636Z,101449.77
2017-10-16T04:53:26.019Z,101449.41
2017-10-16T04:55:53.424Z,101454.44
2017-10-16T04:58:20.838Z,101449.17
2017-10-16T05:00:48.258Z,101453.88
2017-10-16T05:03:15.650Z,101451.69
2017-10-16T05:05:43.070Z,101450.41
2017-10-16T05:08:10.467Z,101448.06
2017-10-16T05:10:37.863Z,101441.13
2017-10-16T05:13:05.341Z,101441.13
2017-10-16T05:15:32.731Z,101434.69
2017-10-16T05:18:00.167Z,101438.04
2017-10-16T05:20:27.546Z,101434.86
2017-10-16T05:22:54.969Z,101435.22
2017-10-16T05:25:22.374Z,101432.03
2017-10-16T05:27:49.874Z,101434.21
2017-10-16T05:30:17.267Z,101440.02
2017-10-16T05:32:44.670Z,101442.38
2017-10-16T05:35:12.068Z,101442.36
2017-10-16T05:37:39.467Z,101438.91
2017-10-16T05:40:06.859Z,101435.32
2017-10-16T05:42:34.262Z,101436.39
2017-10-16T05:45:01.763Z,101434.80
2017-10-16T05:47:29.180Z,101437.72
2017-10-16T05:49:56.566Z,101440.73
2017-10-16T05:52:23.954Z,101441.97
2017-10-16T05:54:51.370Z,101440.75
2017-10-16T05:57:18.838Z,101440.68
2017-10-16T05:59:46.242Z,101437.97
2017-10-16T06:02:13.654Z,101437.08
2017-10-16T06:04:41.050Z,101431.77
2017-10-16T06:07:08.443Z,101440.01
2017-10-16T06:09:35.929Z,101440.20
2017-10-16T06:12:03.323Z,101442.47
2017-10-16T06:14:30.734Z,101448.52
2017-10-16T06:16:58.126Z,101450.09
2017-10-16T06:19:25.526Z,101456.20
2017-10-16T06:21:52.994Z,101457.11
2017-10-16T06:24:20.390Z,101460.40
2017-10-16T06:26:47.783Z,101465.37
2017-10-16T06:29:15.182Z,101466.23
2017-10-16T06:31:42.574Z,101468.31
2017-10-16T06:34:09.971Z,101461.59
2017-10-16T06:36:37.368Z,101464.43
2017-10-16T06:39:04.791Z,101460.67
2017-10-16T06:41:32.199Z,101460.59
2017-10-16T06:43:59.591Z,101464.69
2017-10-16T06:46:27.019Z,101464.98
2017-10-16T06:48:54.411Z,101464.56
2017-10-16T06:51:21.815Z,101466.66
2017-10-16T06:53:49.212Z,101461.22
2017-10-16T06:56:16.631Z,101463.85
2017-10-16T06:58:44.132Z,101464.89
2017-10-16T07:01:11.536Z,101467.56
2017-10-16T07:03:38.931Z,101462.83
2017-10-16T07:06:06.328Z,101462.02
2017-10-16T07:08:33.711Z,101467.47
2017-10-16T07:11:01.112Z,101467.45
2017-10-16T07:13:28.502Z,101463.45
2017-10-16T07:15:55.898Z,101460.25
2017-10-16T07:18:23.292Z,101463.83
2017-10-16T07:20:50.730Z,101462.31
2017-10-16T07:23:18.126Z,101469.31
2017-10-16T07:25:45.538Z,101459.36
2017-10-16T07:28:12.945Z,101452.55
2017-10-16T07:30:40.342Z,101457.98
2017-10-16T07:33:07.748Z,101459.15
2017-10-16T07:35:35.172Z,101458.91
2017-10-16T07:38:02.564Z,101464.23
2017-10-16T07:40:29.959Z,101465.41
2017-10-16T07:42:57.353Z,101467.66
2017-10-16T07:45:24.755Z,101474.97
2017-10-16T07:47:52.142Z,101471.00
2017-10-16T07:50:19.534Z,101472.62
2017-10-16T07:52:46.947Z,101484.34
2017-10-16T07:55:14.335Z,101479.58
2017-10-16T07:57:41.737Z,101479.97
2017-10-16T08:00:09.127Z,101487.55
2017-10-16T08:02:36.531Z,101485.04
2017-10-16T08:05:03.929Z,101491.66
2017-10-16T08:07:31.325Z,101488.48
2017-10-16T08:09:58.724Z,101490.42
2017-10-16T08:12:26.172Z,101489.05
2017-10-16T08:14:53.563Z,101490.20
2017-10-16T08:17:20.956Z,101484.69
2017-10-16T08:19:48.355Z,101483.63
2017-10-16T08:22:15.818Z,101484.14
2017-10-16T08:24:43.202Z,101487.73
2017-10-16T08:27:10.598Z,101491.37
2017-10-16T08:29:37.999Z,101491.06
2017-10-16T08:32:05.450Z,101487.59
2017-10-16T08:34:32.843Z,101502.95
2017-10-16T08:37:00.243Z,101506.88
2017-10-16T08:39:27.635Z,101511.12
2017-10-16T08:41:55.032Z,101507.50
2017-10-16T08:44:22.423Z,101508.78
2017-10-16T08:46:49.814Z,101511.86
2017-10-16T08:49:17.207Z,101513.47
2017-10-16T08:51:44.603Z,101514.67
2017-10-16T08:54:11.996Z,101508.19
2017-10-16T08:56:39.386Z,101510.70
2017-10-16T08:59:06.780Z,101502.80
2017-10-16T09:01:34.180Z,101505.76
2017-10-16T09:04:01.585Z,101505.73
2017-10-16T09:06:28.971Z,101509.70
2017-10-16T09:08:56.376Z,101516.05
2017-10-16T09:11:23.852Z,101511.84
2017-10-16T09:13:51.298Z,101507.23
2017-10-16T09:16:18.687Z,101507.86
2017-10-16T09:18:46.087Z,101508.72
2017-10-16T09:21:13.466Z,101511.77
2017-10-16T09:23:40.866Z,101511.02
2017-10-16T09:26:08.250Z,101516.88
2017-10-16T09:28:35.642Z,101511.44
2017-10-16T09:31:03.036Z,101515.41
2017-10-16T09:33:30.435Z,101523.01
2017-10-16T09:35:57.827Z,101518.73
2017-10-16T09:38:25.258Z,101511.95
2017-10-16T09:40:52.654Z,101516.88
2017-10-16T09:43:20.043Z,101523.46
2017-10-16T09:45:47.439Z,101516.36
2017-10-16T09:48:14.893Z,101522.29
2017-10-16T09:50:42.273Z,101517.84
2017-10-16T09:53:09.671Z,101518.78
2017-10-16T09:55:37.167Z,101525.80
2017-10-16T09:58:04.558Z,101529.59
2017-10-16T10:00:31.966Z,101530.42
2017-10-16T10:02:59.359Z,101539.14
2017-10-16T10:05:26.755Z,101525.98
2017-10-16T10:07:54.146Z,101529.47
2017-10-16T10:10:21.595Z,101525.67
2017-10-16T10:12:48.982Z,101534.22
2017-10-16T10:15:16.379Z,101525.35
2017-10-16T10:17:43.762Z,101531.81
2017-10-16T10:20:11.158Z,101528.92
2017-10-16T10:22:38.541Z,101530.00
2017-10-16T10:25:05.949Z,101533.28
2017-10-16T10:27:33.331Z,101535.01
2017-10-16T10:30:00.742Z,101545.64
2017-10-16T10:32:28.207Z,101544.28
2017-10-16T10:34:55.623Z,101540.80
2017-10-16T10:37:22.995Z,101544.63
2017-10-16T10:39:50.390Z,101556.31
2017-10-16T10:42:17.790Z,101556.56
2017-10-16T10:44:45.196Z,101544.95
2017-10-16T10:47:12.644Z,101547.70
2017-10-16T10:49:40.047Z,101540.23
2017-10-16T10:52:07.438Z,101538.80
2017-10-16T10:54:34.843Z,101540.59
2017-10-16T10:57:02.248Z,101539.43
2017-10-16T10:59:29.639Z,101536.48
2017-10-16T11:01:57.038Z,101537.26
2017-10-16T11:04:24.542Z,101537.43
2017-10-16T11:06:51.987Z,101525.42
2017-10-16T11:09:19.438Z,101528.08
2017-10-16T11:11:46.838Z,101535.21
2017-10-16T11:14:14.230Z,101523.61
2017-10-16T11:16:41.635Z,101520.27
2017-10-16T11:19:09.072Z,101516.62
2017-10-16T11:21:36.483Z,101513.94
2017-10-16T11:24:03.864Z,101507.62
2017-10-16T11:26:31.257Z,101514.87
2017-10-16T11:28:58.698Z,101510.75
2017-10-16T11:31:26.174Z,101514.68
2017-10-16T11:33:53.573Z,101509.64
2017-10-16T11:36:20.967Z,101513.58
2017-10-16T11:38:48.354Z,101513.25
2017-10-16T11:41:15.760Z,101501.66
2017-10-16T11:43:43.152Z,101492.44
2017-10-16T11:46:10.542Z,101497.87
2017-10-16T11:48:37.930Z,101490.93
2017-10-16T11:51:05.322Z,101493.22
2017-10-16T11:53:32.720Z,101485.98
2017-10-16T11:56:00.111Z,101483.55
2017-10-16T11:58:27.591Z,101482.23
2017-10-16T12:00:55.024Z,101483.28
2017-10-16T12:03:22.479Z,101470.72
2017-10-16T12:05:49.870Z,101473.84
2017-10-16T12:08:17.266Z,101470.30
2017-10-16T12:10:44.758Z,101464.80
2017-10-16T12:13:12.158Z,101469.70
2017-10-16T12:15:39.550Z,101470.25
2017-10-16T12:18:06.943Z,101467.36
2017-10-16T12:20:34.341Z,101463.84
2017-10-16T12:23:01.728Z,101473.24
2017-10-16T12:25:29.186Z,101473.14
2017-10-16T12:27:56.659Z,101466.25
2017-10-16T12:30:24.046Z,101462.77
2017-10-16T12:32:51.447Z,101458.20
2017-10-16T12:35:18.909Z,101454.00
2017-10-16T12:37:46.314Z,101456.89
2017-10-16T12:40:13.722Z,101457.91
2017-10-16T12:42:41.114Z,101454.98
2017-10-16T12:45:08.534Z,101459.08
2017-10-16T12:47:35.930Z,101456.77
2017-10-16T12:50:03.319Z,101461.66
2017-10-16T12:52:30.716Z,101459.09
2017-10-16T12:54:58.099Z,101462.62
2017-10-16T12:57:25.497Z,101458.14
2017-10-16T12:59:52.894Z,101464.66
2017-10-16T13:02:20.291Z,101466.41
2017-10-16T13:04:51.075Z,101466.61
2017-10-16T13:07:18.457Z,101457.57
2017-10-16T13:09:45.854Z,101454.47
2017-10-16T13:12:13.342Z,101452.30
2017-10-16T13:14:40.735Z,101447.01
2017-10-16T13:17:08.136Z,101446.50
2017-10-16T13:19:35.546Z,101456.44
2017-10-16T13:22:02.935Z,101450.55
2017-10-16T13:24:30.331Z,101450.80
2017-10-16T13:26:57.731Z,101446.96
2017-10-16T13:29:25.174Z,101438.16
2017-10-16T13:31:52.567Z,101439.98
2017-10-16T13:34:19.959Z,101431.80
2017-10-16T13:36:47.341Z,101431.94
2017-10-16T13:39:14.756Z,101432.88
2017-10-16T13:41:42.141Z,101437.66
2017-10-16T13:44:09.535Z,101431.14
2017-10-16T13:46:36.928Z,101432.04
2017-10-16T13:49:04.327Z,101431.05
2017-10-16T13:51:31.715Z,101424.89
2017-10-16T13:53:59.107Z,101427.59
2017-10-16T13:56:26.500Z,101429.39
2017-10-16T13:58:53.907Z,101424.48
2017-10-16T14:01:21.299Z,101419.36
2017-10-16T14:03:48.714Z,101424.95
2017-10-16T14:06:16.120Z,101417.91
2017-10-16T14:08:43.510Z,101418.53
2017-10-16T14:11:10.911Z,101416.55
2017-10-16T14:13:38.316Z,101415.38
2017-10-16T14:16:05.698Z,101413.42
2017-10-16T14:18:33.095Z,101409.28
2017-10-16T14:21:00.490Z,101408.59
2017-10-16T14:23:28.692Z,101412.91
2017-10-16T14:25:56.078Z,101414.78
2017-10-16T14:28:23.495Z,101412.94
2017-10-16T14:30:50.886Z,101406.94
2017-10-16T14:33:18.287Z,101409.77
2017-10-16T14:35:45.681Z,101412.63
2017-10-16T14:38:13.067Z,101411.44
2017-10-16T14:40:40.470Z,101413.59
2017-10-16T14:43:07.863Z,101409.42
2017-10-16T14:45:35.265Z,101405.77
2017-10-16T14:48:02.647Z,101410.63
2017-10-16T14:50:30.064Z,101408.16
2017-10-16T14:52:57.447Z,101405.45
2017-10-16T14:55:24.846Z,101401.14
2017-10-16T14:57:52.243Z,101400.86
2017-10-16T15:00:19.641Z,101407.96
2017-10-16T15:02:47.032Z,101403.44
2017-10-16T15:05:14.426Z,101403.68
2017-10-16T15:07:41.817Z,101403.58
2017-10-16T15:10:09.207Z,101403.44
2017-10-16T15:12:36.707Z,101407.65
2017-10-16T15:15:04.120Z,101406.12
2017-10-16T15:17:31.614Z,101401.52
2017-10-16T15:19:59.081Z,101405.49
2017-10-16T15:22:26.539Z,101408.41
2017-10-16T15:24:53.927Z,101406.28
2017-10-16T15:27:21.331Z,101398.59
2017-10-16T15:29:48.732Z,101396.47
2017-10-16T15:32:16.143Z,101402.78
2017-10-16T15:34:43.525Z,101401.51
2017-10-16T15:37:10.914Z,101399.52
2017-10-16T15:39:38.302Z,101401.86
2017-10-16T15:42:05.701Z,101404.38
2017-10-16T15:44:33.090Z,101394.91
2017-10-16T15:47:00.598Z,101397.63
2017-10-16T15:49:27.999Z,101394.86
2017-10-16T15:51:55.393Z,101397.44
2017-10-16T15:54:22.785Z,101397.78
2017-10-16T15:56:50.175Z,101389.57
2017-10-16T15:59:17.574Z,101392.40
2017-10-16T16:01:44.977Z,101399.45
2017-10-16T16:04:12.362Z,101390.92
2017-10-16T16:06:39.843Z,101389.61
2017-10-16T16:09:07.231Z,101390.55
2017-10-16T16:11:34.631Z,101391.44
2017-10-16T16:14:02.028Z,101395.80
2017-10-16T16:16:29.435Z,101394.70
2017-10-16T16:18:56.831Z,101393.91
2017-10-16T16:21:24.290Z,101388.27
2017-10-16T16:23:52.468Z,101398.67
2017-10-16T16:26:19.852Z,101399.31
2017-10-16T16:28:47.278Z,101391.44
2017-10-16T16:31:14.667Z,101387.48
2017-10-16T16:33:42.071Z,101392.98
2017-10-16T16:36:09.462Z,101392.84
2017-10-16T16:38:36.903Z,101386.91
2017-10-16T16:41:04.291Z,101391.50
2017-10-16T16:43:31.694Z,101383.73
2017-10-16T16:45:59.092Z,101383.91
2017-10-16T16:48:26.490Z,101381.86
2017-10-16T16:50:53.894Z,101383.36
2017-10-16T16:53:21.302Z,101390.31
2017-10-16T16:55:48.695Z,101388.98
2017-10-16T16:58:16.095Z,101396.41
2017-10-16T17:00:43.490Z,101391.03
2017-10-16T17:03:10.900Z,101395.66
2017-10-16T17:05:38.321Z,101390.41
2017-10-16T17:08:05.772Z,101390.86
2017-10-16T17:10:33.171Z,101393.47
2017-10-16T17:13:00.554Z,101399.09
2017-10-16T17:15:28.035Z,101388.42
2017-10-16T17:17:55.508Z,101394.97
2017-10-16T17:20:22.911Z,101402.86
2017-10-16T17:22:50.329Z,101398.63
2017-10-16T17:25:17.719Z,101405.33
2017-10-16T17:27:45.115Z,101395.31
2017-10-16T17:30:12.522Z,101394.48
2017-10-16T17:32:39.910Z,101396.92
2017-10-16T17:35:07.316Z,101401.78
2017-10-16T17:37:34.714Z,101408.31
2017-10-16T17:40:02.126Z,101403.53
2017-10-16T17:42:29.557Z,101406.89
2017-10-16T17:44:56.967Z,101403.61
2017-10-16T17:47:24.475Z,101405.83
2017-10-16T17:49:51.865Z,101401.61
2017-10-16T17:52:19.276Z,101408.50
2017-10-16T17:54:46.666Z,101411.37
2017-10-16T17:57:14.077Z,101413.48
2017-10-16T17:59:41.481Z,101413.84
2017-10-16T18:02:08.913Z,101418.58
2017-10-16T18:04:36.383Z,101418.64
2017-10-16T18:07:03.780Z,101416.48
2017-10-16T18:09:31.179Z,101413.47
2017-10-16T18:11:58.578Z,101418.51
2017-10-16T18:14:25.997Z,101418.36
2017-10-16T18:16:53.403Z,101417.03
2017-10-16T18:19:20.790Z,101413.70
2017-10-16T18:21:48.186Z,101412.80
2017-10-16T18:24:15.582Z,101411.28
2017-10-16T18:26:42.986Z,101407.22
2017-10-16T18:29:10.384Z,101407.03
2017-10-16T18:31:37.796Z,101411.66
2017-10-16T18:34:05.226Z,101400.34
2017-10-16T18:36:32.634Z,101398.91
2017-10-16T18:39:00.022Z,101399.13
2017-10-16T18:41:27.515Z,101398.50
2017-10-16T18:43:54.966Z,101394.73
2017-10-16T18:46:22.398Z,101399.26
2017-10-16T18:48:49.760Z,101396.31
2017-10-16T18:51:17.195Z,101400.38
2017-10-16T18:53:44.786Z,101400.75
2017-10-16T18:56:12.182Z,101399.33
2017-10-16T18:58:39.595Z,101392.41
2017-10-16T19:01:06.994Z,101391.63
2017-10-16T19:03:34.398Z,101388.30
2017-10-16T19:06:01.791Z,101392.19
2017-10-16T19:08:29.224Z,101395.98
2017-10-16T19:10:56.624Z,101398.80
2017-10-16T19:13:24.026Z,101395.75
2017-10-16T19:15:51.499Z,101398.56
2017-10-16T19:18:18.952Z,101392.05
2017-10-16T19:20:46.338Z,101382.68
2017-10-16T19:23:13.751Z,101386.45
2017-10-16T19:25:41.150Z,101381.84
2017-10-16T19:28:08.582Z,101384.55
2017-10-16T19:30:36.036Z,101385.90
2017-10-16T19:33:03.432Z,101384.17
2017-10-16T19:35:30.834Z,101390.84
2017-10-16T19:37:58.269Z,101387.02
2017-10-16T19:40:25.668Z,101391.54
2017-10-16T19:42:53.067Z,101383.85
2017-10-16T19:45:20.570Z,101379.84
2017-10-16T19:47:48.053Z,101380.66
2017-10-16T19:50:15.438Z,101380.25
2017-10-16T19:52:42.938Z,101375.55
2017-10-16T19:55:10.363Z,101372.17
2017-10-16T19:57:37.765Z,101370.33
2017-10-16T20:00:05.211Z,101376.26
2017-10-16T20:02:32.662Z,101374.39
2017-10-16T20:05:00.105Z,101372.02
2017-10-16T20:07:27.478Z,101373.98
2017-10-16T20:09:54.878Z,101373.16
2017-10-16T20:12:22.290Z,101378.85
2017-10-16T20:14:49.690Z,101377.21
2017-10-16T20:17:17.088Z,101376.84
2017-10-16T20:19:44.486Z,101376.47
2017-10-16T20:22:11.911Z,101380.12
2017-10-16T20:24:39.319Z,101374.53
2017-10-16T20:27:06.835Z,101380.66
2017-10-16T20:29:34.226Z,101379.00
2017-10-16T20:32:01.740Z,101377.77
2017-10-16T20:34:29.127Z,101380.03
2017-10-16T20:36:56.538Z,101375.86
2017-10-16T20:39:23.935Z,101374.91
2017-10-16T20:41:51.335Z,101380.41
2017-10-16T20:44:18.734Z,101372.88
2017-10-16T20:46:46.141Z,101374.27
2017-10-16T20:49:13.574Z,101376.02
2017-10-16T20:51:40.975Z,101367.57
2017-10-16T20:54:08.362Z,101366.91
2017-10-16T20:56:35.771Z,101368.06
2017-10-16T20:59:03.170Z,101364.42
2017-10-16T21:01:30.568Z,101371.34
2017-10-16T21:03:58.066Z,101367.93
2017-10-16T21:06:25.474Z,101368.95
2017-10-16T21:08:52.879Z,101369.45
2017-10-16T21:11:20.311Z,101368.61
2017-10-16T21:13:47.708Z,101366.84
2017-10-16T21:16:15.102Z,101371.63
2017-10-16T21:18:42.507Z,101373.59
2017-10-16T21:21:09.904Z,101381.34
2017-10-16T21:23:37.306Z,101381.88
2017-10-16T21:26:04.703Z,101380.17
2017-10-16T21:28:32.109Z,101380.50
2017-10-16T21:30:59.599Z,101385.48
2017-10-16T21:33:26.985Z,101384.05
2017-10-16T21:35:54.380Z,101381.00
2017-10-16T21:38:21.769Z,101376.45
2017-10-16T21:40:49.167Z,101376.61
2017-10-16T21:43:16.564Z,101373.43
2017-10-16T21:45:43.958Z,101375.81
2017-10-16T21:48:11.354Z,101375.30
2017-10-16T21:50:38.746Z,101376.37
2017-10-16T21:53:06.146Z,101370.92
2017-10-16T21:55:33.539Z,101370.50
2017-10-16T21:58:00.985Z,101375.59
2017-10-16T22:00:28.390Z,101373.83
2017-10-16T22:02:55.815Z,101375.94
2017-10-16T22:05:23.214Z,101381.34
2017-10-16T22:07:50.727Z,101373.75
2017-10-16T22:10:18.163Z,101374.47
2017-10-16T22:15:23.579Z,101370.05
2017-10-16T22:17:51.010Z,101372.20
2017-10-16T22:20:18.402Z,101364.91
2017-10-16T22:22:45.802Z,101363.25
2017-10-16T22:25:13.202Z,101364.20
2017-10-16T22:27:40.599Z,101369.78
2017-10-16T22:30:08.009Z,101366.58
2017-10-16T22:32:35.398Z,101359.11
2017-10-16T22:35:02.804Z,101363.36
2017-10-16T22:37:30.206Z,101360.19
2017-10-16T22:39:57.611Z,101364.47
2017-10-16T22:42:25.010Z,101364.50
2017-10-16T22:44:52.411Z,101371.42
2017-10-16T22:47:32.231Z,101372.30
2017-10-16T22:49:59.622Z,101374.16
2017-10-16T22:52:27.027Z,101374.84
2017-10-16T22:54:54.414Z,101378.85
2017-10-16T22:57:21.807Z,101376.18
2017-10-16T22:59:49.210Z,101373.97
2017-10-16T23:02:16.693Z,101375.28
2017-10-16T23:04:44.112Z,101380.44
2017-10-16T23:07:11.499Z,101380.16
2017-10-16T23:09:38.900Z,101382.39
2017-10-16T23:12:06.303Z,101381.55
2017-10-16T23:14:33.705Z,101376.66
2017-10-16T23:17:01.103Z,101381.98
2017-10-16T23:19:28.507Z,101372.88
2017-10-16T23:21:55.898Z,101365.17
2017-10-16T23:24:23.304Z,101369.47
2017-10-16T23:26:50.704Z,101368.59
2017-10-16T23:29:18.099Z,101361.10
2017-10-16T23:31:45.504Z,101362.59
2017-10-16T23:34:13.011Z,101366.70
2017-10-16T23:36:40.429Z,101363.91
2017-10-16T23:39:07.824Z,101368.27
2017-10-16T23:41:35.384Z,101362.95
2017-10-16T23:44:02.779Z,101360.55
2017-10-16T23:46:30.183Z,101365.45
2017-10-16T23:48:57.581Z,101359.64
2017-10-16T23:51:24.988Z,101362.11
2017-10-16T23:53:52.379Z,101367.05
2017-10-16T23:56:19.787Z,101356.21
2017-10-16T23:58:47.191Z,101358.23
